createdAt,value
2018-12-25T00:02:08.501Z,78347.36
2018-12-25T00:04:34.402Z,78352.38
2018-12-25T00:07:00.287Z,78352.38
2018-12-25T00:09:29.206Z,78358.38
2018-12-25T00:11:55.413Z,78359.38
2018-12-25T00:14:21.306Z,78360.38
2018-12-25T00:16:47.206Z,78361.38
2018-12-25T00:19:13.264Z,78367.39
2018-12-25T00:21:39.153Z,78366.39
2018-12-25T00:24:05.056Z,78362.38
2018-12-25T00:26:33.777Z,78364.39
2018-12-25T00:29:02.666Z,78358.38
2018-12-25T00:31:31.587Z,78337.35
2018-12-25T00:33:57.480Z,78338.35
2018-12-25T00:36:23.377Z,78333.34
2018-12-25T00:38:49.319Z,78330.34
2018-12-25T00:41:15.217Z,78329.34
2018-12-25T00:43:41.106Z,78318.33
2018-12-25T00:46:06.996Z,78324.34
2018-12-25T00:48:32.937Z,78320.33
2018-12-25T00:51:01.963Z,78322.33
2018-12-25T00:53:30.916Z,78324.34
2018-12-25T00:55:59.850Z,78324.34
2018-12-25T00:58:28.782Z,78334.34
2018-12-25T01:00:57.841Z,78327.34
2018-12-25T01:03:26.502Z,78335.34
2018-12-25T01:05:55.448Z,78330.34
2018-12-25T01:08:21.360Z,78336.35
2018-12-25T01:10:50.351Z,78326.34
2018-12-25T01:13:19.246Z,78334.34
2018-12-25T01:15:48.276Z,78339.36
2018-12-25T01:18:17.180Z,78344.36
2018-12-25T01:20:46.094Z,78342.36
2018-12-25T01:23:15.011Z,78340.36
2018-12-25T01:25:43.905Z,78344.36
2018-12-25T01:28:09.946Z,78345.36
2018-12-25T01:30:35.847Z,78352.38
2018-12-25T01:33:04.766Z,78345.36
2018-12-25T01:35:33.816Z,78359.38
2018-12-25T01:38:02.716Z,78356.38
2018-12-25T01:40:31.695Z,78353.38
2018-12-25T01:42:57.583Z,78356.38
2018-12-25T01:45:26.661Z,78358.38
2018-12-25T01:47:52.762Z,78359.38
2018-12-25T01:50:21.864Z,78355.38
2018-12-25T01:52:50.785Z,78351.37
2018-12-25T01:55:20.000Z,78347.36
2018-12-25T01:57:46.101Z,78362.38
2018-12-25T02:00:15.231Z,78366.39
2018-12-25T02:02:41.163Z,78358.38
2018-12-25T02:05:07.496Z,78365.39
2018-12-25T02:07:36.213Z,78356.38
2018-12-25T02:10:05.552Z,78362.38
2018-12-25T02:12:34.218Z,78359.38
2018-12-25T02:15:03.434Z,78353.38
2018-12-25T02:17:32.153Z,78358.38
2018-12-25T02:19:58.085Z,78346.36
2018-12-25T02:22:25.644Z,78354.38
2018-12-25T02:24:57.329Z,78350.37
2018-12-25T02:27:23.226Z,78350.37
2018-12-25T02:29:52.239Z,78358.38
2018-12-25T02:32:18.146Z,78355.38
2018-12-25T02:34:47.045Z,78346.36
2018-12-25T02:37:12.989Z,78354.38
2018-12-25T02:39:38.872Z,78349.37
2018-12-25T02:42:07.862Z,78342.36
2018-12-25T02:44:36.848Z,78346.36
2018-12-25T02:47:06.093Z,78348.36
2018-12-25T02:49:34.746Z,78346.36
2018-12-25T02:52:03.868Z,78334.34
2018-12-25T02:54:29.752Z,78337.35
2018-12-25T02:56:58.670Z,78336.35
2018-12-25T02:59:24.577Z,78332.34
2018-12-25T03:01:55.365Z,78330.34
2018-12-25T03:04:21.241Z,78330.34
2018-12-25T03:06:47.130Z,78334.34
2018-12-25T03:09:13.129Z,78331.34
2018-12-25T03:11:39.030Z,78330.34
2018-12-25T03:14:04.924Z,78325.34
2018-12-25T03:16:30.821Z,78320.33
2018-12-25T03:18:56.721Z,78318.33
2018-12-25T03:21:22.617Z,78315.33
2018-12-25T03:23:48.520Z,78319.33
2018-12-25T03:26:17.202Z,78318.33
2018-12-25T03:28:46.130Z,78312.32
2018-12-25T03:31:12.073Z,78304.31
2018-12-25T03:33:41.377Z,78305.31
2018-12-25T03:36:10.078Z,78303.31
2018-12-25T03:38:38.967Z,78302.31
2018-12-25T03:41:05.709Z,78306.31
2018-12-25T03:43:34.631Z,78308.31
2018-12-25T03:46:03.585Z,78309.31
2018-12-25T03:48:29.482Z,78324.34
2018-12-25T03:50:58.440Z,78324.34
2018-12-25T03:53:27.526Z,78318.33
2018-12-25T03:55:56.490Z,78320.33
2018-12-25T03:58:22.432Z,78318.33
2018-12-25T04:00:51.438Z,78318.33
2018-12-25T04:03:20.383Z,78323.34
2018-12-25T04:05:46.273Z,78316.33
2018-12-25T04:08:12.180Z,78313.32
2018-12-25T04:10:41.093Z,78316.33
2018-12-25T04:13:10.033Z,78315.33
2018-12-25T04:15:35.967Z,78309.31
2018-12-25T04:18:04.628Z,78304.31
2018-12-25T04:20:33.525Z,78320.33
2018-12-25T04:22:59.428Z,78312.32
2018-12-25T04:25:28.337Z,78310.32
2018-12-25T04:28:00.382Z,78301.31
2018-12-25T04:30:29.370Z,78301.31
2018-12-25T04:32:58.039Z,78300.31
2018-12-25T04:35:27.176Z,78304.31
2018-12-25T04:37:53.073Z,78305.31
2018-12-25T04:40:19.807Z,78306.31
2018-12-25T04:42:45.699Z,78302.31
2018-12-25T04:45:14.762Z,78302.31
2018-12-25T04:47:43.537Z,78315.33
2018-12-25T04:50:12.493Z,78316.33
2018-12-25T04:52:41.454Z,78313.32
2018-12-25T04:55:07.711Z,78309.31
2018-12-25T04:57:36.984Z,78314.33
2018-12-25T05:00:05.848Z,78313.32
2018-12-25T05:02:34.871Z,78321.33
2018-12-25T05:05:00.827Z,78320.33
2018-12-25T05:07:26.787Z,78314.33
2018-12-25T05:09:55.692Z,78315.33
2018-12-25T05:12:24.681Z,78319.33
2018-12-25T05:14:53.350Z,78323.34
2018-12-25T05:17:22.432Z,78316.33
2018-12-25T05:19:51.354Z,78322.33
2018-12-25T05:22:17.243Z,78325.34
2018-12-25T05:24:43.143Z,78324.34
2018-12-25T05:27:09.386Z,78319.33
2018-12-25T05:29:35.277Z,78313.32
2018-12-25T05:32:01.174Z,78316.33
2018-12-25T05:34:27.079Z,78310.32
2018-12-25T05:36:52.984Z,78315.33
2018-12-25T05:39:18.891Z,78310.32
2018-12-25T05:41:44.851Z,78318.33
2018-12-25T05:44:10.785Z,78325.34
2018-12-25T05:46:39.735Z,78319.33
2018-12-25T05:49:08.864Z,78313.32
2018-12-25T05:51:34.814Z,78315.33
2018-12-25T05:54:00.699Z,78310.32
2018-12-25T05:56:29.393Z,78320.33
2018-12-25T05:58:58.327Z,78310.32
2018-12-25T06:01:30.312Z,78307.31
2018-12-25T06:03:56.255Z,78316.33
2018-12-25T06:06:25.207Z,78312.32
2018-12-25T06:08:51.130Z,78310.32
2018-12-25T06:11:20.433Z,78304.31
2018-12-25T06:13:49.465Z,78300.31
2018-12-25T06:16:18.157Z,78300.31
2018-12-25T06:18:47.107Z,78307.31
2018-12-25T06:21:16.005Z,78304.31
2018-12-25T06:23:41.938Z,78308.31
2018-12-25T06:26:10.927Z,78316.33
2018-12-25T06:28:39.575Z,78318.33
2018-12-25T06:31:08.483Z,78312.32
2018-12-25T06:33:34.372Z,78319.33
2018-12-25T06:36:03.449Z,78317.33
2018-12-25T06:38:29.347Z,78319.33
2018-12-25T06:40:58.493Z,78311.32
2018-12-25T06:43:27.419Z,78307.31
2018-12-25T06:45:56.513Z,78308.31
2018-12-25T06:48:25.448Z,78299.30
2018-12-25T06:50:51.342Z,78291.30
2018-12-25T06:53:20.256Z,78284.29
2018-12-25T06:55:46.169Z,78278.28
2018-12-25T06:58:15.448Z,78274.28
2018-12-25T07:00:44.130Z,78278.28
2018-12-25T07:03:12.995Z,78283.28
2018-12-25T07:05:38.889Z,78289.30
2018-12-25T07:08:05.149Z,78287.30
2018-12-25T07:10:31.053Z,78292.30
2018-12-25T07:12:56.942Z,78285.29
2018-12-25T07:15:22.845Z,78281.28
2018-12-25T07:17:51.522Z,78280.28
2018-12-25T07:20:20.525Z,78268.27
2018-12-25T07:22:49.426Z,78266.27
2018-12-25T07:25:18.383Z,78269.27
2018-12-25T07:27:47.289Z,78268.27
2018-12-25T07:30:16.201Z,78258.25
2018-12-25T07:32:45.148Z,78253.25
2018-12-25T07:35:14.132Z,78250.25
2018-12-25T07:37:43.174Z,78253.25
2018-12-25T07:40:11.844Z,78250.25
2018-12-25T07:42:40.960Z,78251.25
2018-12-25T07:45:10.215Z,78254.25
2018-12-25T07:47:36.105Z,78254.25
2018-12-25T07:50:05.541Z,78246.23
2018-12-25T07:52:31.428Z,78234.23
2018-12-25T07:55:00.389Z,78245.23
2018-12-25T07:57:29.311Z,78249.24
2018-12-25T07:59:58.221Z,78244.23
2018-12-25T08:02:27.222Z,78247.24
2018-12-25T08:04:53.123Z,78240.23
2018-12-25T08:07:21.825Z,78239.23
2018-12-25T08:09:47.713Z,78241.23
2018-12-25T08:12:13.640Z,78244.23
2018-12-25T08:14:39.540Z,78256.25
2018-12-25T08:17:05.487Z,78252.25
2018-12-25T08:19:31.381Z,78244.23
2018-12-25T08:21:57.282Z,78262.27
2018-12-25T08:24:26.196Z,78265.27
2018-12-25T08:26:52.097Z,78258.25
2018-12-25T08:29:21.063Z,78250.25
2018-12-25T08:31:49.968Z,78246.23
2018-12-25T08:34:18.961Z,78265.27
2018-12-25T08:36:47.884Z,78261.27
2018-12-25T08:39:13.780Z,78265.27
2018-12-25T08:41:42.710Z,78259.26
2018-12-25T08:44:11.683Z,78259.26
2018-12-25T08:46:40.614Z,78248.24
2018-12-25T08:49:09.586Z,78253.25
2018-12-25T08:51:38.508Z,78251.25
2018-12-25T08:54:04.455Z,78254.25
2018-12-25T08:56:30.684Z,78244.23
2018-12-25T08:58:59.545Z,78248.24
2018-12-25T09:01:28.463Z,78251.25
2018-12-25T09:04:00.636Z,78254.25
2018-12-25T09:06:29.954Z,78262.27
2018-12-25T09:08:58.667Z,78262.27
2018-12-25T09:11:27.693Z,78266.27
2018-12-25T09:13:56.136Z,78271.27
2018-12-25T09:16:25.304Z,78271.27
2018-12-25T09:18:56.025Z,78268.27
2018-12-25T09:21:25.047Z,78258.25
2018-12-25T09:23:50.933Z,78259.26
2018-12-25T09:26:20.146Z,78252.25
2018-12-25T09:28:49.073Z,78260.26
2018-12-25T09:31:15.000Z,78274.28
2018-12-25T09:33:43.963Z,78267.27
2018-12-25T09:36:09.848Z,78274.28
2018-12-25T09:38:35.750Z,78268.27
2018-12-25T09:41:04.656Z,78273.27
2018-12-25T09:43:33.595Z,78272.27
2018-12-25T09:46:02.507Z,78277.28
2018-12-25T09:48:28.375Z,78277.28
2018-12-25T09:50:57.137Z,78264.27
2018-12-25T09:53:26.216Z,78265.27
2018-12-25T09:55:52.112Z,78254.25
2018-12-25T09:58:21.264Z,78254.25
2018-12-25T10:00:47.159Z,78256.25
2018-12-25T10:03:13.116Z,78249.24
2018-12-25T10:05:39.010Z,78262.27
2018-12-25T10:08:04.903Z,78265.27
2018-12-25T10:10:30.798Z,78260.26
2018-12-25T10:12:56.699Z,78252.25
2018-12-25T10:15:25.606Z,78252.25
2018-12-25T10:17:54.694Z,78252.25
2018-12-25T10:20:25.484Z,78247.24
2018-12-25T10:22:51.301Z,78267.27
2018-12-25T10:25:17.216Z,78243.23
2018-12-25T10:27:43.100Z,78248.24
2018-12-25T10:30:11.787Z,78256.25
2018-12-25T10:32:40.716Z,78247.24
2018-12-25T10:35:09.618Z,78253.25
2018-12-25T10:37:40.461Z,78249.24
2018-12-25T10:40:09.028Z,78246.23
2018-12-25T10:42:38.146Z,78243.23
2018-12-25T10:45:04.051Z,78250.25
2018-12-25T10:47:29.952Z,78247.24
2018-12-25T10:49:56.261Z,78252.25
2018-12-25T10:52:24.936Z,78251.25
2018-12-25T10:54:50.828Z,78244.23
2018-12-25T10:57:16.733Z,78248.24
2018-12-25T10:59:42.623Z,78248.24
2018-12-25T11:02:08.525Z,78247.24
2018-12-25T11:04:34.480Z,78248.24
2018-12-25T11:07:00.732Z,78250.25
2018-12-25T11:09:29.447Z,78244.23
2018-12-25T11:11:58.383Z,78238.23
2018-12-25T11:14:27.502Z,78251.25
2018-12-25T11:16:56.431Z,78246.23
2018-12-25T11:19:25.334Z,78241.23
2018-12-25T11:21:51.654Z,78244.23
2018-12-25T11:24:20.825Z,78236.23
2018-12-25T11:26:49.488Z,78247.24
2018-12-25T11:29:18.423Z,78244.23
2018-12-25T11:31:44.380Z,78244.23
2018-12-25T11:34:10.272Z,78243.23
2018-12-25T11:36:39.226Z,78245.23
2018-12-25T11:39:05.123Z,78248.24
2018-12-25T11:41:34.087Z,78230.22
2018-12-25T11:44:00.048Z,78228.22
2018-12-25T11:46:25.939Z,78226.22
2018-12-25T11:48:51.842Z,78234.23
2018-12-25T11:51:17.732Z,78238.23
2018-12-25T11:53:43.672Z,78228.22
2018-12-25T11:56:12.627Z,78225.22
2018-12-25T11:58:41.733Z,78219.20
2018-12-25T12:01:10.641Z,78230.22
2018-12-25T12:03:39.616Z,78229.22
2018-12-25T12:06:05.501Z,78228.22
2018-12-25T12:08:31.389Z,78232.22
2018-12-25T12:11:00.112Z,78230.22
2018-12-25T12:13:29.621Z,78231.22
2018-12-25T12:15:58.345Z,78230.22
2018-12-25T12:18:30.576Z,78234.23
2018-12-25T12:20:59.582Z,78236.23
2018-12-25T12:23:25.472Z,78230.22
2018-12-25T12:25:57.554Z,78220.20
2018-12-25T12:28:26.589Z,78232.22
2018-12-25T12:30:55.536Z,78237.23
2018-12-25T12:33:27.315Z,78244.23
2018-12-25T12:35:56.292Z,78238.23
2018-12-25T12:38:25.617Z,78228.22
2018-12-25T12:40:51.522Z,78224.22
2018-12-25T12:43:18.055Z,78228.22
2018-12-25T12:45:46.895Z,78224.22
2018-12-25T12:48:15.609Z,78227.22
2018-12-25T12:50:44.872Z,78222.21
2018-12-25T12:53:13.797Z,78228.22
2018-12-25T12:55:42.916Z,78219.20
2018-12-25T12:58:12.181Z,78212.20
2018-12-25T13:00:41.303Z,78216.20
2018-12-25T13:03:09.967Z,78217.20
2018-12-25T13:05:38.890Z,78211.20
2018-12-25T13:08:07.808Z,78220.20
2018-12-25T13:10:36.721Z,78226.22
2018-12-25T13:13:05.691Z,78218.20
2018-12-25T13:15:34.743Z,78216.20
2018-12-25T13:18:03.705Z,78225.22
2018-12-25T13:20:29.834Z,78224.22
2018-12-25T13:22:58.545Z,78216.20
2018-12-25T13:25:27.478Z,78223.21
2018-12-25T13:27:56.396Z,78236.23
2018-12-25T13:30:25.310Z,78228.22
2018-12-25T13:32:57.647Z,78229.22
2018-12-25T13:35:26.544Z,78225.22
2018-12-25T13:37:55.527Z,78224.22
2018-12-25T13:40:27.507Z,78230.22
2018-12-25T13:42:56.436Z,78233.22
2018-12-25T13:45:25.542Z,78227.22
2018-12-25T13:47:54.468Z,78228.22
2018-12-25T13:50:26.129Z,78227.22
2018-12-25T13:53:02.559Z,78230.22
2018-12-25T13:55:25.506Z,78228.22
2018-12-25T13:57:54.930Z,78229.22
2018-12-25T14:00:26.167Z,78239.23
2018-12-25T14:02:52.056Z,78242.23
2018-12-25T14:05:20.963Z,78238.23
2018-12-25T14:07:46.860Z,78239.23
2018-12-25T14:10:15.783Z,78239.23
2018-12-25T14:12:41.684Z,78244.23
2018-12-25T14:15:10.600Z,78242.23
2018-12-25T14:17:39.526Z,78245.23
2018-12-25T14:20:08.460Z,78238.23
2018-12-25T14:22:34.366Z,78248.24
2018-12-25T14:25:03.809Z,78243.23
2018-12-25T14:27:32.469Z,78245.23
2018-12-25T14:30:01.398Z,78250.25
2018-12-25T14:32:30.293Z,78242.23
2018-12-25T14:34:59.193Z,78240.23
2018-12-25T14:37:25.495Z,78244.23
2018-12-25T14:39:51.441Z,78255.25
2018-12-25T14:42:20.119Z,78246.23
2018-12-25T14:44:49.683Z,78244.23
2018-12-25T14:47:15.579Z,78242.23
2018-12-25T14:49:41.482Z,78236.23
2018-12-25T14:52:07.716Z,78223.21
2018-12-25T14:54:33.617Z,78226.22
2018-12-25T14:56:59.530Z,78238.23
2018-12-25T14:59:25.423Z,78239.23
2018-12-25T15:01:51.325Z,78237.23
2018-12-25T15:04:17.219Z,78245.23
2018-12-25T15:06:43.512Z,78236.23
2018-12-25T15:09:09.415Z,78245.23
2018-12-25T15:11:38.221Z,78234.23
2018-12-25T15:14:04.161Z,78239.23
2018-12-25T15:16:30.066Z,78239.23
2018-12-25T15:18:56.404Z,78240.23
2018-12-25T15:21:22.661Z,78233.22
2018-12-25T15:23:48.611Z,78235.23
2018-12-25T15:26:17.285Z,78235.23
2018-12-25T15:28:46.251Z,78225.22
2018-12-25T15:31:15.189Z,78233.22
2018-12-25T15:33:43.977Z,78228.22
2018-12-25T15:36:12.924Z,78224.22
2018-12-25T15:38:42.077Z,78226.22
2018-12-25T15:41:07.958Z,78228.22
2018-12-25T15:43:36.944Z,78225.22
2018-12-25T15:46:05.837Z,78237.23
2018-12-25T15:48:31.738Z,78240.23
2018-12-25T15:50:57.987Z,78244.23
2018-12-25T15:53:26.653Z,78244.23
2018-12-25T15:55:55.674Z,78245.23
2018-12-25T15:58:24.573Z,78237.23
2018-12-25T16:00:50.538Z,78244.23
2018-12-25T16:03:19.452Z,78237.23
2018-12-25T16:05:48.618Z,78241.23
2018-12-25T16:08:17.906Z,78237.23
2018-12-25T16:10:46.698Z,78240.23
2018-12-25T16:13:15.669Z,78229.22
2018-12-25T16:15:45.045Z,78236.23
2018-12-25T16:18:13.810Z,78234.23
2018-12-25T16:20:42.771Z,78237.23
2018-12-25T16:23:10.052Z,78243.23
2018-12-25T16:25:38.710Z,78232.22
2018-12-25T16:28:07.624Z,78235.23
2018-12-25T16:30:36.597Z,78237.23
2018-12-25T16:33:05.513Z,78236.23
2018-12-25T16:35:34.448Z,78241.23
2018-12-25T16:38:00.386Z,78236.23
2018-12-25T16:40:29.308Z,78236.23
2018-12-25T16:42:55.282Z,78232.22
2018-12-25T16:45:27.269Z,78229.22
2018-12-25T16:47:56.272Z,78224.22
2018-12-25T16:50:25.257Z,78232.22
2018-12-25T16:52:57.443Z,78231.22
2018-12-25T16:55:23.429Z,78221.21
2018-12-25T16:57:49.342Z,78224.22
2018-12-25T17:00:18.306Z,78226.22
2018-12-25T17:02:47.658Z,78224.22
2018-12-25T17:05:16.392Z,78224.22
2018-12-25T17:07:45.492Z,78232.22
2018-12-25T17:10:11.386Z,78230.22
2018-12-25T17:12:40.656Z,78221.21
2018-12-25T17:15:09.676Z,78226.22
2018-12-25T17:17:38.405Z,78227.22
2018-12-25T17:20:07.341Z,78224.22
2018-12-25T17:22:36.482Z,78226.22
2018-12-25T17:25:02.390Z,78234.23
2018-12-25T17:27:28.281Z,78231.22
2018-12-25T17:29:56.943Z,78230.22
2018-12-25T17:32:22.834Z,78227.22
2018-12-25T17:34:48.701Z,78225.22
2018-12-25T17:37:14.621Z,78228.22
2018-12-25T17:39:40.528Z,78232.22
2018-12-25T17:42:06.428Z,78228.22
2018-12-25T17:44:32.316Z,78228.22
2018-12-25T17:46:58.433Z,78234.23
2018-12-25T17:49:27.474Z,78232.22
2018-12-25T17:51:53.365Z,78239.23
2018-12-25T17:54:22.497Z,78240.23
2018-12-25T17:56:51.424Z,78236.23
2018-12-25T17:59:20.581Z,78238.23
2018-12-25T18:01:49.334Z,78237.23
2018-12-25T18:04:18.149Z,78238.23
2018-12-25T18:06:47.048Z,78233.22
2018-12-25T18:09:12.991Z,78247.24
2018-12-25T18:11:41.650Z,78234.23
2018-12-25T18:14:10.841Z,78243.23
2018-12-25T18:16:36.738Z,78241.23
2018-12-25T18:19:02.649Z,78239.23
2018-12-25T18:21:31.554Z,78230.22
2018-12-25T18:23:57.450Z,78231.22
2018-12-25T18:26:23.395Z,78228.22
2018-12-25T18:28:49.293Z,78240.23
2018-12-25T18:31:15.240Z,78236.23
2018-12-25T18:33:44.609Z,78242.23
2018-12-25T18:36:13.285Z,78231.22
2018-12-25T18:38:39.177Z,78234.23
2018-12-25T18:41:08.148Z,78236.23
2018-12-25T18:43:34.095Z,78232.22
2018-12-25T18:46:03.081Z,78241.23
2018-12-25T18:48:32.204Z,78239.23
2018-12-25T18:51:01.109Z,78231.22
2018-12-25T18:53:30.222Z,78234.23
2018-12-25T18:55:59.505Z,78242.23
2018-12-25T18:58:25.397Z,78240.23
2018-12-25T19:00:51.294Z,78236.23
2018-12-25T19:03:20.063Z,78238.23
2018-12-25T19:05:45.926Z,78232.22
2018-12-25T19:08:12.031Z,78227.22
2018-12-25T19:10:41.139Z,78240.23
2018-12-25T19:13:10.096Z,78231.22
2018-12-25T19:15:39.075Z,78235.23
2018-12-25T19:18:07.980Z,78229.22
2018-12-25T19:20:36.979Z,78233.22
2018-12-25T19:23:02.876Z,78228.22
2018-12-25T19:25:32.045Z,78228.22
2018-12-25T19:28:00.967Z,78231.22
2018-12-25T19:30:29.974Z,78239.23
2018-12-25T19:32:58.904Z,78232.22
2018-12-25T19:35:24.781Z,78234.23
2018-12-25T19:37:55.710Z,78241.23
2018-12-25T19:40:21.603Z,78244.23
2018-12-25T19:42:47.537Z,78236.23
2018-12-25T19:45:16.205Z,78242.23
2018-12-25T19:47:45.111Z,78234.23
2018-12-25T19:50:14.184Z,78240.23
2018-12-25T19:52:40.074Z,78239.23
2018-12-25T19:55:09.036Z,78238.23
2018-12-25T19:57:38.013Z,78230.22
2018-12-25T20:00:08.724Z,78232.22
2018-12-25T20:02:38.581Z,78230.22
2018-12-25T20:05:12.267Z,78236.23
2018-12-25T20:07:56.761Z,78243.23
2018-12-25T20:10:27.371Z,78239.23
2018-12-25T20:13:12.212Z,78243.23
2018-12-25T20:15:42.778Z,78243.23
2018-12-25T20:18:16.476Z,78242.23
2018-12-25T20:20:44.276Z,78241.23
2018-12-25T20:23:14.851Z,78236.23
2018-12-25T20:25:59.856Z,78232.22
2018-12-25T20:28:27.654Z,78235.23
2018-12-25T20:31:04.575Z,78228.22
2018-12-25T20:33:47.481Z,78234.23
2018-12-25T20:36:27.897Z,78236.23
2018-12-25T20:39:01.945Z,78234.23
2018-12-25T20:41:29.737Z,78232.22
2018-12-25T20:44:14.309Z,78240.23
2018-12-25T20:46:48.161Z,78233.22
2018-12-25T20:49:21.725Z,78228.22
2018-12-25T20:51:55.324Z,78227.22
2018-12-25T20:54:35.465Z,78227.22
2018-12-25T20:57:20.281Z,78228.22
2018-12-25T20:59:48.094Z,78222.21
2018-12-25T21:02:32.824Z,78214.20
2018-12-25T21:05:03.404Z,78225.22
2018-12-25T21:07:31.249Z,78230.22
2018-12-25T21:10:01.827Z,78217.20
2018-12-25T21:12:38.695Z,78222.21
2018-12-25T21:15:23.323Z,78216.20
2018-12-25T21:18:07.804Z,78207.20
2018-12-25T21:20:52.479Z,78203.19
2018-12-25T21:23:37.276Z,78210.20
2018-12-25T21:26:22.366Z,78208.20
2018-12-25T21:28:51.417Z,78214.20
2018-12-25T21:31:17.353Z,78212.20
2018-12-25T21:33:46.024Z,78218.20
2018-12-25T21:36:11.956Z,78231.22
2018-12-25T21:38:41.306Z,78222.21
2018-12-25T21:41:07.203Z,78224.22
2018-12-25T21:43:35.955Z,78225.22
2018-12-25T21:46:01.858Z,78225.22
2018-12-25T21:48:27.751Z,78228.22
2018-12-25T21:50:56.698Z,78218.20
2018-12-25T21:53:23.787Z,78220.20
2018-12-25T21:55:49.914Z,78229.22
2018-12-25T21:58:15.810Z,78227.22
2018-12-25T22:00:41.703Z,78224.22
2018-12-25T22:03:07.613Z,78218.20
2018-12-25T22:05:41.547Z,78225.22
2018-12-25T22:08:10.511Z,78215.20
2018-12-25T22:10:36.401Z,78224.22
2018-12-25T22:13:05.344Z,78218.20
2018-12-25T22:15:31.270Z,78220.20
2018-12-25T22:18:00.371Z,78231.22
2018-12-25T22:20:29.604Z,78222.21
2018-12-25T22:22:58.493Z,78225.22
2018-12-25T22:25:27.766Z,78226.22
2018-12-25T22:27:55.678Z,78226.22
2018-12-25T22:30:24.754Z,78225.22
2018-12-25T22:32:51.047Z,78228.22
2018-12-25T22:35:19.858Z,78223.21
2018-12-25T22:37:48.754Z,78229.22
2018-12-25T22:40:17.822Z,78230.22
2018-12-25T22:42:43.764Z,78229.22
2018-12-25T22:45:10.087Z,78225.22
2018-12-25T22:47:38.788Z,78222.21
2018-12-25T22:50:04.877Z,78216.20
2018-12-25T22:52:33.972Z,78218.20
2018-12-25T22:55:03.051Z,78218.20
2018-12-25T22:57:31.787Z,78227.22
2018-12-25T22:59:57.689Z,78219.20
2018-12-25T23:02:27.202Z,78215.20
2018-12-25T23:04:55.878Z,78211.20
2018-12-25T23:07:21.762Z,78209.20
2018-12-25T23:09:50.695Z,78209.20
2018-12-25T23:12:16.592Z,78213.20
2018-12-25T23:14:45.510Z,78217.20
2018-12-25T23:17:11.404Z,78217.20
2018-12-25T23:19:37.298Z,78208.20
2018-12-25T23:22:06.274Z,78208.20
2018-12-25T23:24:35.368Z,78214.20
2018-12-25T23:27:04.282Z,78215.20
2018-12-25T23:29:30.223Z,78207.20
2018-12-25T23:31:59.156Z,78203.19
2018-12-25T23:34:28.147Z,78200.19
2018-12-25T23:36:57.044Z,78199.19
2018-12-25T23:39:25.760Z,78201.19
2018-12-25T23:41:55.062Z,78206.19
2018-12-25T23:44:26.530Z,78199.19
2018-12-25T23:46:54.861Z,78196.18
2018-12-25T23:49:25.372Z,78196.18
2018-12-25T23:51:56.156Z,78198.19
2018-12-25T23:54:24.865Z,78195.18
2018-12-25T23:56:56.559Z,78195.18
2018-12-25T23:59:25.503Z,78187.17
